Airfield :
LOGIN :

Register | Disclaimer

   EN    FR    IT 

 










Legend :    VFR   Marginal VFR   IFR   Intensive IFR   Very Intensive IFR
Visi :
Ceiling :
>= 8 km
>= 3000ft
5 to 8 km
1000 to 3000 ft
1500m to 5 km
500 to 1000 ft
800 to 1500m
200 to 500 ft
< 800m
< 200 ft
Symbols :   Thunderstorms  Fog  Heavy snow  Heavy precipitations  Wind > 20 kt
SIGMETs :     Misc.  Thunderstorms  Icing  Turbulence  Mountain Waves  Volcanic Ashes






- Airport Elevation : 364 ft


LFAQ - Albert Bray

CURRENT METAR :
  • 131200Z AUTO 24013KT 9999 BKN020 BKN074 BKN100 09/06 Q1002 NOSIG

EXPIRED METARs :
  • 131130Z AUTO 23009KT 9999 SCT016 BKN023 BKN029 09/06 Q1002 NOSIG
  • 131100Z AUTO 24009KT 9999 BKN040 BKN096 BKN110 09/07 Q1003 NOSIG
  • 131030Z AUTO 24010KT 9999 FEW008 SCT100 BKN150 09/07 Q1002 NOSIG
  • 131000Z AUTO 24009KT CAVOK 08/07 Q1003 NOSIG
  • 130930Z AUTO 24011KT 9999 FEW043 BKN100 BKN160 08/06 Q1003 NOSIG
  • 130900Z AUTO 22007KT CAVOK 07/06 Q1003 NOSIG

TAF TAF LFAQ
Valid from the 13 at 12:00 until the 13 at 21:00 UTC


131100Z 1312/1321 22010KT 9999 BKN030
PROB30
TEMPO 1316/1321 3000 SHRA BKN020TCU



MET'MAP, your aeronautical weather chart ! - Copyright ORBIFLY December 2007 - Disclaimer

ORBIFLY MET'MAP TEAM :

Programming & Development : Alexandra Zaïnal
Concept & Development : Baudouin d'Aumeries
Co-Development & Prog : Marc-Olivier Méhu
Technical & hardware support : Manuel Goepfert

Contact : metmap@orbifly.com




SOURCES & CREDITS :

   NOAA